createdAt,value
2019-02-12T00:00:43.821Z,94095.72
2019-02-12T00:03:12.494Z,94106.56
2019-02-12T00:05:40.980Z,94090.69
2019-02-12T00:08:09.461Z,94095.73
2019-02-12T00:10:38.137Z,94113.31
2019-02-12T00:13:06.760Z,94128.66
2019-02-12T00:15:35.237Z,94142.58
2019-02-12T00:18:03.835Z,94144.70
2019-02-12T00:20:32.462Z,94125.84
2019-02-12T00:23:01.161Z,94125.84
2019-02-12T00:25:29.688Z,94130.61
2019-02-12T00:27:58.321Z,94139.70
2019-02-12T00:30:26.830Z,94145.44
2019-02-12T00:32:55.572Z,94139.78
2019-02-12T00:35:24.195Z,94129.95
2019-02-12T00:37:52.828Z,94128.14
2019-02-12T00:40:21.349Z,94121.86
2019-02-12T00:42:50.020Z,94136.23
2019-02-12T00:45:26.647Z,94130.29
2019-02-12T00:47:55.310Z,94129.66
2019-02-12T00:50:23.805Z,94129.10
2019-02-12T00:52:52.292Z,94131.61
2019-02-12T00:55:20.950Z,94129.16
2019-02-12T00:57:49.585Z,94123.10
2019-02-12T01:00:18.205Z,94112.86
2019-02-12T01:02:46.721Z,94108.03
2019-02-12T01:05:15.341Z,94110.91
2019-02-12T01:07:44.073Z,94129.23
2019-02-12T01:10:12.758Z,94126.45
2019-02-12T01:12:41.245Z,94121.38
2019-02-12T01:15:12.801Z,94100.61
2019-02-12T01:17:41.731Z,94104.84
2019-02-12T01:20:13.267Z,94094.37
2019-02-12T01:22:44.847Z,94089.55
2019-02-12T01:25:13.712Z,94085.05
2019-02-12T01:27:42.338Z,94075.74
2019-02-12T01:30:13.993Z,94080.56
2019-02-12T01:32:42.665Z,94068.97
2019-02-12T01:35:11.286Z,94075.11
2019-02-12T01:37:39.796Z,94094.14
2019-02-12T01:40:11.279Z,94119.24
2019-02-12T01:42:39.910Z,94141.05
2019-02-12T01:45:10.222Z,94145.11
2019-02-12T01:47:38.887Z,94137.77
2019-02-12T01:50:09.927Z,94134.63
2019-02-12T01:52:38.473Z,94131.98
2019-02-12T01:55:07.130Z,94130.09
2019-02-12T01:57:35.759Z,94148.61
2019-02-12T02:00:10.028Z,94148.36
2019-02-12T02:02:38.618Z,94147.06
2019-02-12T02:05:09.346Z,94147.00
2019-02-12T02:07:37.952Z,94136.16
2019-02-12T02:10:09.984Z,94133.56
2019-02-12T02:12:38.523Z,94132.99
2019-02-12T02:15:09.941Z,94136.38
2019-02-12T02:17:38.578Z,94131.80
2019-02-12T02:20:10.006Z,94129.38
2019-02-12T02:22:38.542Z,94133.45
2019-02-12T02:25:09.753Z,94123.84
2019-02-12T02:27:38.295Z,94125.26
2019-02-12T02:30:09.795Z,94122.27
2019-02-12T02:32:38.620Z,94130.25
2019-02-12T02:35:07.512Z,94133.39
2019-02-12T02:37:36.037Z,94131.08
2019-02-12T02:40:06.459Z,94128.84
2019-02-12T02:42:41.565Z,94128.95
2019-02-12T02:45:12.598Z,94129.09
2019-02-12T02:47:41.076Z,94132.52
2019-02-12T02:50:10.703Z,94126.08
2019-02-12T02:52:39.373Z,94128.14
2019-02-12T02:55:09.285Z,94122.83
2019-02-12T02:57:37.902Z,94124.78
2019-02-12T03:00:11.391Z,94123.70
2019-02-12T03:02:39.865Z,94119.86
2019-02-12T03:05:10.985Z,94125.16
2019-02-12T03:07:39.574Z,94132.20
2019-02-12T03:10:10.085Z,94128.24
2019-02-12T03:12:38.693Z,94125.64
2019-02-12T03:15:09.557Z,94130.09
2019-02-12T03:17:38.099Z,94130.27
2019-02-12T03:20:13.083Z,94140.02
2019-02-12T03:22:41.760Z,94141.20
2019-02-12T03:25:10.984Z,94143.31
2019-02-12T03:27:39.642Z,94149.63
2019-02-12T03:30:14.346Z,94145.33
2019-02-12T03:32:42.974Z,94149.51
2019-02-12T03:35:11.769Z,94149.40
2019-02-12T03:37:40.245Z,94153.17
2019-02-12T03:40:10.970Z,94152.81
2019-02-12T03:42:39.646Z,94159.09
2019-02-12T03:45:10.667Z,94155.36
2019-02-12T03:47:39.274Z,94159.26
2019-02-12T03:50:10.150Z,94147.17
2019-02-12T03:52:38.625Z,94153.41
2019-02-12T03:55:10.177Z,94152.59
2019-02-12T03:57:38.820Z,94160.92
2019-02-12T04:00:15.689Z,94162.02
2019-02-12T04:03:04.709Z,94154.31
2019-02-12T04:05:33.922Z,94153.17
2019-02-12T04:08:02.790Z,94140.72
2019-02-12T04:10:31.410Z,94147.59
2019-02-12T04:13:00.030Z,94151.94
2019-02-12T04:15:28.661Z,94158.55
2019-02-12T04:17:57.367Z,94161.97
2019-02-12T04:20:26.009Z,94161.04
2019-02-12T04:22:54.502Z,94164.52
2019-02-12T04:25:23.421Z,94161.69
2019-02-12T04:27:51.975Z,94169.44
2019-02-12T04:30:20.589Z,94179.69
2019-02-12T04:32:49.260Z,94173.84
2019-02-12T04:35:17.749Z,94183.70
2019-02-12T04:37:46.302Z,94188.84
2019-02-12T04:40:14.960Z,94187.55
2019-02-12T04:42:43.583Z,94186.20
2019-02-12T04:45:12.383Z,94184.73
2019-02-12T04:47:40.990Z,94185.77
2019-02-12T04:50:14.417Z,94187.19
2019-02-12T04:52:43.025Z,94191.45
2019-02-12T04:55:12.490Z,94186.80
2019-02-12T04:57:41.113Z,94192.69
2019-02-12T05:00:16.887Z,94198.45
2019-02-12T05:02:45.539Z,94204.88
2019-02-12T05:05:14.266Z,94192.80
2019-02-12T05:07:42.890Z,94200.16
2019-02-12T05:10:21.048Z,94214.92
2019-02-12T05:12:49.519Z,94197.38
2019-02-12T05:15:18.142Z,94216.91
2019-02-12T05:17:46.828Z,94221.97
2019-02-12T05:20:15.643Z,94216.83
2019-02-12T05:22:44.148Z,94220.30
2019-02-12T05:25:13.297Z,94218.05
2019-02-12T05:27:41.935Z,94226.73
2019-02-12T05:30:12.533Z,94221.59
2019-02-12T05:32:41.177Z,94227.11
2019-02-12T05:35:09.825Z,94234.20
2019-02-12T05:37:38.445Z,94229.81
2019-02-12T05:40:09.444Z,94258.26
2019-02-12T05:42:38.043Z,94250.30
2019-02-12T05:45:12.318Z,94261.56
2019-02-12T05:47:40.925Z,94267.73
2019-02-12T05:50:14.309Z,94274.00
2019-02-12T05:52:42.916Z,94275.67
2019-02-12T05:55:11.761Z,94280.74
2019-02-12T05:57:40.312Z,94290.50
2019-02-12T06:00:15.393Z,94297.44
2019-02-12T06:02:44.093Z,94297.19
2019-02-12T06:05:15.590Z,94305.48
2019-02-12T06:07:44.233Z,94311.71
2019-02-12T06:10:12.904Z,94317.96
2019-02-12T06:12:41.520Z,94322.52
2019-02-12T06:15:10.081Z,94326.28
2019-02-12T06:17:38.633Z,94337.91
2019-02-12T06:20:08.163Z,94334.48
2019-02-12T06:22:36.843Z,94333.59
2019-02-12T06:25:07.955Z,94333.16
2019-02-12T06:27:37.028Z,94334.48
2019-02-12T06:30:08.838Z,94331.73
2019-02-12T06:32:37.500Z,94328.38
2019-02-12T06:35:08.430Z,94328.33
2019-02-12T06:37:36.968Z,94326.41
2019-02-12T06:40:10.888Z,94328.13
2019-02-12T06:42:39.513Z,94326.45
2019-02-12T06:45:12.770Z,94332.83
2019-02-12T06:47:41.419Z,94340.57
2019-02-12T06:50:14.217Z,94327.55
2019-02-12T06:52:42.872Z,94331.63
2019-02-12T06:55:11.933Z,94329.51
2019-02-12T06:57:40.415Z,94328.49
2019-02-12T07:00:15.497Z,94334.98
2019-02-12T07:03:14.326Z,94336.89
2019-02-12T07:06:03.784Z,94330.41
2019-02-12T07:08:47.431Z,94339.31
2019-02-12T07:11:31.096Z,94342.96
2019-02-12T07:14:05.694Z,94353.86
2019-02-12T07:16:42.942Z,94352.08
2019-02-12T07:19:50.045Z,94349.98
2019-02-12T07:22:30.215Z,94364.98
2019-02-12T07:25:07.453Z,94368.57
2019-02-12T07:27:38.994Z,94375.40
2019-02-12T07:30:36.223Z,94386.44
2019-02-12T07:33:13.438Z,94393.28
2019-02-12T07:36:05.142Z,94405.94
2019-02-12T07:38:59.123Z,94396.77
2019-02-12T07:41:33.464Z,94410.94
2019-02-12T07:44:24.722Z,94414.09
2019-02-12T07:47:02.221Z,94408.53
2019-02-12T07:49:42.455Z,94413.06
2019-02-12T07:52:22.803Z,94417.19
2019-02-12T07:54:59.959Z,94427.20
2019-02-12T07:57:54.061Z,94431.75
2019-02-12T08:00:28.390Z,94438.58
2019-02-12T08:03:11.591Z,94445.17
2019-02-12T08:05:51.971Z,94447.63
2019-02-12T08:08:41.899Z,94455.23
2019-02-12T08:11:16.352Z,94445.78
2019-02-12T08:14:12.335Z,94460.32
2019-02-12T08:16:52.987Z,94454.30
2019-02-12T08:19:42.829Z,94460.18
2019-02-12T08:22:40.474Z,94452.57
2019-02-12T08:25:14.597Z,94454.28
2019-02-12T08:28:01.066Z,94449.64
2019-02-12T08:30:33.752Z,94459.91
2019-02-12T08:33:07.888Z,94469.69
2019-02-12T08:35:57.295Z,94474.63
2019-02-12T08:38:33.889Z,94470.59
2019-02-12T08:41:22.173Z,94472.31
2019-02-12T08:43:53.699Z,94487.44
2019-02-12T08:46:30.776Z,94473.48
2019-02-12T08:49:11.081Z,94472.60
2019-02-12T08:51:58.163Z,94473.53
2019-02-12T08:54:51.058Z,94464.62
2019-02-12T08:57:41.179Z,94470.05
2019-02-12T09:00:18.471Z,94477.97
2019-02-12T09:02:50.042Z,94473.80
2019-02-12T09:05:21.578Z,94460.45
2019-02-12T09:07:56.002Z,94450.58
2019-02-12T09:10:30.127Z,94472.47
2019-02-12T09:13:23.073Z,94475.95
2019-02-12T09:16:00.320Z,94479.21
2019-02-12T09:18:47.158Z,94492.47
2019-02-12T09:21:33.917Z,94487.69
2019-02-12T09:24:35.961Z,94509.12
2019-02-12T09:27:16.213Z,94496.66
2019-02-12T09:29:56.796Z,94500.55
2019-02-12T09:32:46.707Z,94494.66
2019-02-12T09:35:21.019Z,94504.45
2019-02-12T09:38:17.717Z,94494.38
2019-02-12T09:40:55.111Z,94505.72
2019-02-12T09:43:32.692Z,94508.70
2019-02-12T09:46:07.410Z,94519.05
2019-02-12T09:48:38.937Z,94505.70
2019-02-12T09:51:10.514Z,94507.41
2019-02-12T09:53:50.867Z,94507.41
2019-02-12T09:56:31.096Z,94510.83
2019-02-12T09:59:24.679Z,94521.27
2019-02-12T10:02:17.604Z,94515.44
2019-02-12T10:04:58.223Z,94524.24
2019-02-12T10:07:29.863Z,94527.03
2019-02-12T10:10:01.491Z,94525.02
2019-02-12T10:12:38.884Z,94536.48
2019-02-12T10:15:19.360Z,94542.77
2019-02-12T10:17:56.844Z,94546.70
2019-02-12T10:20:37.102Z,94533.38
2019-02-12T10:23:36.870Z,94529.30
2019-02-12T10:26:08.440Z,94542.11
2019-02-12T10:29:15.150Z,94543.74
2019-02-12T10:31:42.806Z,94540.61
2019-02-12T10:34:11.732Z,94571.39
2019-02-12T10:36:40.352Z,94555.69
2019-02-12T10:39:10.220Z,94556.69
2019-02-12T10:41:38.782Z,94555.44
2019-02-12T10:44:07.410Z,94561.80
2019-02-12T10:46:36.295Z,94559.21
2019-02-12T10:49:04.911Z,94546.48
2019-02-12T10:51:33.527Z,94567.73
2019-02-12T10:54:02.225Z,94569.33
2019-02-12T10:56:30.846Z,94584.11
2019-02-12T10:58:59.494Z,94577.91
2019-02-12T11:01:28.087Z,94583.11
2019-02-12T11:03:56.704Z,94590.63
2019-02-12T11:06:25.319Z,94591.89
2019-02-12T11:08:54.234Z,94587.91
2019-02-12T11:11:22.883Z,94613.67
2019-02-12T11:13:51.501Z,94601.03
2019-02-12T11:16:20.156Z,94604.11
2019-02-12T11:18:48.772Z,94602.28
2019-02-12T11:21:17.339Z,94575.90
2019-02-12T11:23:46.112Z,94600.67
2019-02-12T11:26:14.706Z,94608.56
2019-02-12T11:28:43.298Z,94617.22
2019-02-12T11:31:12.207Z,94610.38
2019-02-12T11:33:40.752Z,94598.58
2019-02-12T11:36:09.366Z,94612.63
2019-02-12T11:38:38.106Z,94617.97
2019-02-12T11:41:06.663Z,94611.95
2019-02-12T11:43:35.426Z,94610.38
2019-02-12T11:46:04.052Z,94597.34
2019-02-12T11:48:32.617Z,94622.14
2019-02-12T11:51:01.272Z,94615.42
2019-02-12T11:53:29.827Z,94633.78
2019-02-12T11:55:58.447Z,94635.70
2019-02-12T11:58:27.045Z,94640.61
2019-02-12T12:00:57.154Z,94636.25
2019-02-12T12:03:25.708Z,94650.88
2019-02-12T12:05:54.390Z,94644.02
2019-02-12T12:08:22.944Z,94650.79
2019-02-12T12:10:51.420Z,94641.59
2019-02-12T12:13:20.006Z,94646.48
2019-02-12T12:15:48.664Z,94636.78
2019-02-12T12:18:17.290Z,94647.08
2019-02-12T12:20:45.848Z,94658.93
2019-02-12T12:23:14.465Z,94656.86
2019-02-12T12:25:43.095Z,94666.11
2019-02-12T12:28:11.686Z,94673.23
2019-02-12T12:30:40.150Z,94677.78
2019-02-12T12:33:08.723Z,94676.12
2019-02-12T12:35:37.385Z,94690.25
2019-02-12T12:38:05.933Z,94688.96
2019-02-12T12:40:34.536Z,94682.31
2019-02-12T12:43:03.167Z,94696.26
2019-02-12T12:45:31.637Z,94696.08
2019-02-12T12:48:00.218Z,94715.58
2019-02-12T12:50:28.848Z,94709.56
2019-02-12T12:52:57.579Z,94718.37
2019-02-12T12:55:26.120Z,94725.44
2019-02-12T12:57:54.751Z,94717.30
2019-02-12T13:00:23.438Z,94717.88
2019-02-12T13:02:51.978Z,94732.96
2019-02-12T13:05:20.527Z,94734.08
2019-02-12T13:07:49.087Z,94730.87
2019-02-12T13:10:18.320Z,94739.09
2019-02-12T13:12:47.190Z,94738.06
2019-02-12T13:15:16.203Z,94747.06
2019-02-12T13:17:44.766Z,94738.97
2019-02-12T13:20:16.083Z,94746.75
2019-02-12T13:22:44.638Z,94765.05
2019-02-12T13:25:13.363Z,94776.21
2019-02-12T13:27:42.017Z,94768.97
2019-02-12T13:30:13.555Z,94773.99
2019-02-12T13:32:42.126Z,94776.12
2019-02-12T13:35:11.483Z,94771.64
2019-02-12T13:37:40.022Z,94777.49
2019-02-12T13:40:10.848Z,94782.00
2019-02-12T13:42:39.719Z,94772.68
2019-02-12T13:45:10.882Z,94786.07
2019-02-12T13:47:39.424Z,94794.56
2019-02-12T13:50:09.588Z,94798.65
2019-02-12T13:52:38.133Z,94792.92
2019-02-12T13:55:15.429Z,94810.47
2019-02-12T13:57:39.028Z,94792.33
2019-02-12T14:00:16.709Z,94796.61
2019-02-12T14:02:45.561Z,94818.33
2019-02-12T14:05:17.076Z,94825.36
2019-02-12T14:07:45.622Z,94820.42
2019-02-12T14:10:14.538Z,94830.89
2019-02-12T14:12:43.122Z,94827.56
2019-02-12T14:15:13.336Z,94833.97
2019-02-12T14:17:41.993Z,94843.09
2019-02-12T14:20:15.522Z,94843.42
2019-02-12T14:22:44.066Z,94840.89
2019-02-12T14:25:14.066Z,94854.67
2019-02-12T14:27:42.606Z,94852.98
2019-02-12T14:30:16.009Z,94858.38
2019-02-12T14:32:44.834Z,94866.98
2019-02-12T14:35:13.481Z,94857.72
2019-02-12T14:37:42.185Z,94866.10
2019-02-12T14:40:13.772Z,94871.94
2019-02-12T14:42:42.406Z,94880.45
2019-02-12T14:45:15.775Z,94880.93
2019-02-12T14:47:51.639Z,94886.55
2019-02-12T14:50:21.017Z,94892.64
2019-02-12T14:52:49.658Z,94889.47
2019-02-12T14:55:18.338Z,94900.61
2019-02-12T14:57:46.893Z,94900.95
2019-02-12T15:00:16.901Z,94899.26
2019-02-12T15:02:45.557Z,94910.55
2019-02-12T15:05:14.294Z,94911.85
2019-02-12T15:07:42.920Z,94915.39
2019-02-12T15:10:13.966Z,94908.55
2019-02-12T15:12:42.626Z,94920.15
2019-02-12T15:15:11.543Z,94916.48
2019-02-12T15:17:40.440Z,94912.48
2019-02-12T15:20:15.359Z,94914.94
2019-02-12T15:22:43.908Z,94926.26
2019-02-12T15:25:14.030Z,94933.48
2019-02-12T15:27:42.586Z,94931.02
2019-02-12T15:30:14.055Z,94939.41
2019-02-12T15:32:42.895Z,94917.45
2019-02-12T15:35:11.902Z,94923.03
2019-02-12T15:37:40.540Z,94931.02
2019-02-12T15:40:11.712Z,94932.71
2019-02-12T15:42:40.274Z,94937.67
2019-02-12T15:45:14.447Z,94937.78
2019-02-12T15:47:43.045Z,94942.81
2019-02-12T15:50:12.166Z,94952.61
2019-02-12T15:52:40.730Z,94954.02
2019-02-12T15:55:11.678Z,94953.55
2019-02-12T15:57:42.861Z,94981.27
2019-02-12T16:00:20.469Z,94978.77
2019-02-12T16:02:48.725Z,94980.70
2019-02-12T16:05:17.362Z,94994.66
2019-02-12T16:07:47.494Z,95008.22
2019-02-12T16:10:20.913Z,95006.69
2019-02-12T16:12:51.588Z,95009.01
2019-02-12T16:15:22.436Z,95013.25
2019-02-12T16:17:50.843Z,95024.45
2019-02-12T16:20:19.328Z,95024.41
2019-02-12T16:22:47.919Z,95035.94
2019-02-12T16:25:16.543Z,95033.77
2019-02-12T16:27:45.087Z,95035.94
2019-02-12T16:30:18.716Z,95042.70
2019-02-12T16:32:47.275Z,95045.80
2019-02-12T16:35:18.971Z,95047.96
2019-02-12T16:37:47.841Z,95046.69
2019-02-12T16:40:18.204Z,95059.41
2019-02-12T16:42:46.821Z,95056.47
2019-02-12T16:45:30.421Z,95063.73
2019-02-12T16:48:04.778Z,95070.48
2019-02-12T16:50:33.460Z,95079.61
2019-02-12T16:53:02.143Z,95086.17
2019-02-12T16:55:30.616Z,95099.34
2019-02-12T16:57:59.454Z,95097.22
2019-02-12T17:00:28.078Z,95112.06
2019-02-12T17:02:56.642Z,95113.05
2019-02-12T17:05:25.172Z,95107.78
2019-02-12T17:07:53.727Z,95113.60
2019-02-12T17:10:22.343Z,95112.25
2019-02-12T17:12:51.028Z,95120.02
2019-02-12T17:15:19.593Z,95121.94
2019-02-12T17:17:48.156Z,95129.83
2019-02-12T17:20:22.319Z,95126.38
2019-02-12T17:22:50.878Z,95132.95
2019-02-12T17:25:19.426Z,95136.27
2019-02-12T17:27:48.214Z,95135.30
2019-02-12T17:30:18.022Z,95144.51
2019-02-12T17:32:46.732Z,95149.50
2019-02-12T17:35:15.385Z,95158.80
2019-02-12T17:37:44.005Z,95146.44
2019-02-12T17:40:17.365Z,95142.83
2019-02-12T17:42:46.026Z,95153.30
2019-02-12T17:45:15.653Z,95148.56
2019-02-12T17:47:44.292Z,95154.58
2019-02-12T17:50:16.471Z,95155.09
2019-02-12T17:52:45.030Z,95140.19
2019-02-12T17:55:13.580Z,95155.86
2019-02-12T17:57:42.219Z,95150.88
2019-02-12T18:00:22.070Z,95159.81
2019-02-12T18:02:50.719Z,95159.48
2019-02-12T18:05:19.330Z,95155.97
2019-02-12T18:07:47.898Z,95160.83
2019-02-12T18:10:16.607Z,95159.28
2019-02-12T18:12:45.165Z,95159.64
2019-02-12T18:15:14.725Z,95172.22
2019-02-12T18:17:43.300Z,95169.88
2019-02-12T18:20:17.405Z,95164.69
2019-02-12T18:22:46.026Z,95186.31
2019-02-12T18:25:14.819Z,95182.64
2019-02-12T18:27:43.459Z,95178.03
2019-02-12T18:30:15.059Z,95180.73
2019-02-12T18:32:43.991Z,95185.01
2019-02-12T18:35:12.599Z,95185.66
2019-02-12T18:37:41.213Z,95195.13
2019-02-12T18:40:14.651Z,95193.03
2019-02-12T18:42:43.213Z,95201.53
2019-02-12T18:45:17.063Z,95195.01
2019-02-12T18:47:45.935Z,95192.34
2019-02-12T18:50:14.563Z,95198.14
2019-02-12T18:52:43.289Z,95196.39
2019-02-12T18:55:16.247Z,95205.09
2019-02-12T18:57:44.866Z,95202.55
2019-02-12T19:00:19.212Z,95216.27
2019-02-12T19:02:48.271Z,95216.25
2019-02-12T19:05:16.914Z,95226.23
2019-02-12T19:07:45.485Z,95231.63
2019-02-12T19:10:15.756Z,95233.95
2019-02-12T19:12:44.425Z,95232.05
2019-02-12T19:15:15.477Z,95237.44
2019-02-12T19:17:46.237Z,95230.09
2019-02-12T19:20:14.788Z,95233.42
2019-02-12T19:22:43.424Z,95231.70
2019-02-12T19:25:12.089Z,95237.89
2019-02-12T19:27:40.649Z,95233.64
2019-02-12T19:30:12.234Z,95245.40
2019-02-12T19:32:41.054Z,95242.52
2019-02-12T19:35:11.082Z,95251.02
2019-02-12T19:37:39.706Z,95247.39
2019-02-12T19:40:10.584Z,95253.54
2019-02-12T19:42:39.216Z,95256.66
2019-02-12T19:45:12.919Z,95254.52
2019-02-12T19:47:41.516Z,95267.25
2019-02-12T19:50:11.099Z,95266.28
2019-02-12T19:52:39.652Z,95268.82
2019-02-12T19:55:09.879Z,95274.59
2019-02-12T19:57:38.444Z,95272.30
2019-02-12T20:00:17.757Z,95267.84
2019-02-12T20:02:46.311Z,95277.49
2019-02-12T20:05:14.875Z,95275.75
2019-02-12T20:07:43.459Z,95282.91
2019-02-12T20:10:13.495Z,95280.97
2019-02-12T20:12:42.053Z,95293.72
2019-02-12T20:15:21.668Z,95299.29
2019-02-12T20:17:50.289Z,95310.50
2019-02-12T20:20:18.915Z,95300.45
2019-02-12T20:22:47.585Z,95308.36
2019-02-12T20:25:16.218Z,95307.80
2019-02-12T20:27:44.763Z,95313.56
2019-02-12T20:30:15.028Z,95314.33
2019-02-12T20:32:43.589Z,95325.72
2019-02-12T20:35:20.519Z,95323.39
2019-02-12T20:37:49.138Z,95321.28
2019-02-12T20:40:17.757Z,95326.48
2019-02-12T20:42:46.410Z,95319.94
2019-02-12T20:45:18.910Z,95320.50
2019-02-12T20:47:47.540Z,95329.37
2019-02-12T20:50:17.563Z,95335.14
2019-02-12T20:52:46.119Z,95330.90
2019-02-12T20:55:14.731Z,95326.46
2019-02-12T20:57:43.612Z,95328.22
2019-02-12T21:00:20.433Z,95326.27
2019-02-12T21:02:49.114Z,95322.22
2019-02-12T21:05:17.747Z,95324.54
2019-02-12T21:07:46.372Z,95334.96
2019-02-12T21:10:19.850Z,95341.50
2019-02-12T21:12:48.401Z,95339.97
2019-02-12T21:15:19.678Z,95348.27
2019-02-12T21:17:48.333Z,95342.09
2019-02-12T21:20:17.001Z,95344.23
2019-02-12T21:22:45.618Z,95342.68
2019-02-12T21:25:14.395Z,95351.36
2019-02-12T21:27:42.957Z,95360.22
2019-02-12T21:30:22.932Z,95357.33
2019-02-12T21:32:51.766Z,95353.08
2019-02-12T21:35:20.393Z,95352.30
2019-02-12T21:37:48.963Z,95352.51
2019-02-12T21:40:25.256Z,95361.38
2019-02-12T21:42:54.056Z,95356.76
2019-02-12T21:45:22.610Z,95370.25
2019-02-12T21:47:51.167Z,95372.55
2019-02-12T21:50:19.828Z,95381.04
2019-02-12T21:52:48.392Z,95382.19
2019-02-12T21:55:21.393Z,95374.09
2019-02-12T21:57:50.053Z,95394.33
2019-02-12T22:00:22.261Z,95396.45
2019-02-12T22:02:50.829Z,95390.66
2019-02-12T22:05:19.691Z,95390.48
2019-02-12T22:07:48.247Z,95386.81
2019-02-12T22:10:22.438Z,95393.75
2019-02-12T22:12:51.091Z,95406.47
2019-02-12T22:15:19.722Z,95400.50
2019-02-12T22:17:48.276Z,95403.37
2019-02-12T22:20:21.391Z,95406.47
2019-02-12T22:22:49.952Z,95400.09
2019-02-12T22:25:18.581Z,95400.30
2019-02-12T22:27:47.378Z,95402.98
2019-02-12T22:30:25.749Z,95397.02
2019-02-12T22:32:54.579Z,95387.38
2019-02-12T22:35:23.211Z,95398.53
2019-02-12T22:37:51.764Z,95397.96
2019-02-12T22:40:20.439Z,95407.03
2019-02-12T22:42:48.987Z,95412.22
2019-02-12T22:45:23.371Z,95412.22
2019-02-12T22:47:52.028Z,95417.42
2019-02-12T22:50:20.749Z,95422.23
2019-02-12T22:52:49.375Z,95424.91
2019-02-12T22:55:18.030Z,95428.39
2019-02-12T22:57:49.345Z,95428.55
2019-02-12T23:00:39.835Z,95441.88
2019-02-12T23:03:08.953Z,95429.17
2019-02-12T23:05:37.579Z,95441.47
2019-02-12T23:08:06.251Z,95442.81
2019-02-12T23:10:34.743Z,95445.13
2019-02-12T23:13:03.308Z,95437.83
2019-02-12T23:15:32.039Z,95452.08
2019-02-12T23:18:00.604Z,95447.47
2019-02-12T23:20:29.229Z,95449.56
2019-02-12T23:22:57.907Z,95454.16
2019-02-12T23:25:26.388Z,95455.55
2019-02-12T23:27:57.699Z,95462.30
2019-02-12T23:30:25.481Z,95464.79
2019-02-12T23:32:54.036Z,95457.47
2019-02-12T23:35:22.515Z,95458.41
2019-02-12T23:37:51.106Z,95468.59
2019-02-12T23:40:19.721Z,95470.14
2019-02-12T23:42:48.345Z,95467.03
2019-02-12T23:45:17.130Z,95481.64
2019-02-12T23:47:45.675Z,95474.11
2019-02-12T23:50:14.309Z,95481.03
2019-02-12T23:52:42.922Z,95478.70
2019-02-12T23:55:11.419Z,95481.97
2019-02-12T23:57:39.967Z,95489.87
